sensor_id;sensor_type;location;lat;lon;timestamp;pressure;altitude;pressure_sealevel;temperature;humidity
45523;BME280;31254;51.680;5.394;2023-09-19T00:00:56;100787.31;;;19.18;76.42
45523;BME280;31254;51.680;5.394;2023-09-19T00:03:23;100725.50;;;18.78;76.25
45523;BME280;31254;51.680;5.394;2023-09-19T00:05:52;100713.56;;;18.71;76.27
45523;BME280;31254;51.680;5.394;2023-09-19T00:08:19;100802.00;;;19.19;76.55
45523;BME280;31254;51.680;5.394;2023-09-19T00:10:50;100745.53;;;18.87;76.26
45523;BME280;31254;51.680;5.394;2023-09-19T00:13:17;100821.34;;;19.26;76.26
45523;BME280;31254;51.680;5.394;2023-09-19T00:15:46;100789.84;;;19.07;76.54
45523;BME280;31254;51.680;5.394;2023-09-19T00:18:17;100821.34;;;19.26;76.34
45523;BME280;31254;51.680;5.394;2023-09-19T00:20:45;100796.00;;;19.09;75.95
45523;BME280;31254;51.680;5.394;2023-09-19T00:23:14;100783.00;;;19.03;76.32
45523;BME280;31254;51.680;5.394;2023-09-19T00:25:41;100834.97;;;19.27;76.22
45523;BME280;31254;51.680;5.394;2023-09-19T00:28:08;100804.31;;;19.09;75.82
45523;BME280;31254;51.680;5.394;2023-09-19T00:30:36;100818.78;;;19.17;75.89
45523;BME280;31254;51.680;5.394;2023-09-19T00:33:05;100782.56;;;18.92;75.98
45523;BME280;31254;51.680;5.394;2023-09-19T00:35:34;100829.44;;;19.21;75.76
45523;BME280;31254;51.680;5.394;2023-09-19T00:38:01;100831.16;;;19.22;76.00
45523;BME280;31254;51.680;5.394;2023-09-19T00:40:28;100848.16;;;19.25;75.65
45523;BME280;31254;51.680;5.394;2023-09-19T00:42:59;100846.44;;;19.24;75.50
45523;BME280;31254;51.680;5.394;2023-09-19T00:45:27;100848.78;;;19.21;75.68
45523;BME280;31254;51.680;5.394;2023-09-19T00:48:09;100766.28;;;18.69;75.40
45523;BME280;31254;51.680;5.394;2023-09-19T00:50:38;100857.28;;;19.19;75.24
45523;BME280;31254;51.680;5.394;2023-09-19T00:53:08;100808.06;;;18.88;75.32
45523;BME280;31254;51.680;5.394;2023-09-19T00:55:36;100832.34;;;19.06;75.18
45523;BME280;31254;51.680;5.394;2023-09-19T00:58:04;100828.72;;;18.98;75.33
45523;BME280;31254;51.680;5.394;2023-09-19T01:00:33;100839.53;;;18.93;75.52
45523;BME280;31254;51.680;5.394;2023-09-19T01:03:00;100865.75;;;19.11;75.29
45523;BME280;31254;51.680;5.394;2023-09-19T01:05:30;100789.56;;;18.53;75.30
45523;BME280;31254;51.680;5.394;2023-09-19T01:07:57;100811.34;;;18.70;75.34
45523;BME280;31254;51.680;5.394;2023-09-19T01:10:24;100824.50;;;18.68;75.18
45523;BME280;31254;51.680;5.394;2023-09-19T01:13:21;100885.94;;;19.05;75.09
45523;BME280;31254;51.680;5.394;2023-09-19T01:22:00;100877.38;;;18.93;75.56
45523;BME280;31254;51.680;5.394;2023-09-19T01:30:14;100891.16;;;18.86;75.52
45523;BME280;31254;51.680;5.394;2023-09-19T01:32:43;100888.78;;;18.83;75.26
45523;BME280;31254;51.680;5.394;2023-09-19T01:35:13;100890.91;;;18.81;75.08
45523;BME280;31254;51.680;5.394;2023-09-19T01:37:40;100896.88;;;18.85;75.08
45523;BME280;31254;51.680;5.394;2023-09-19T01:40:13;100887.50;;;18.79;75.21
45523;BME280;31254;51.680;5.394;2023-09-19T01:51:09;100892.94;;;18.72;74.73
45523;BME280;31254;51.680;5.394;2023-09-19T01:56:23;100881.41;;;18.62;74.70
45523;BME280;31254;51.680;5.394;2023-09-19T01:58:53;100886.75;;;18.63;74.71
45523;BME280;31254;51.680;5.394;2023-09-19T02:01:24;100885.91;;;18.63;74.75
45523;BME280;31254;51.680;5.394;2023-09-19T02:03:51;100896.53;;;18.66;74.46
45523;BME280;31254;51.680;5.394;2023-09-19T02:06:18;100839.53;;;18.30;74.63
45523;BME280;31254;51.680;5.394;2023-09-19T02:08:45;100897.94;;;18.55;74.46
45523;BME280;31254;51.680;5.394;2023-09-19T02:11:14;100913.13;;;18.66;74.51
45523;BME280;31254;51.680;5.394;2023-09-19T02:13:41;100868.66;;;18.33;74.22
45523;BME280;31254;51.680;5.394;2023-09-19T02:16:09;100850.34;;;18.25;74.08
45523;BME280;31254;51.680;5.394;2023-09-19T02:18:38;100850.94;;;18.20;74.08
45523;BME280;31254;51.680;5.394;2023-09-19T02:21:06;100905.19;;;18.56;73.91
45523;BME280;31254;51.680;5.394;2023-09-19T02:23:38;100906.88;;;18.57;73.92
45523;BME280;31254;51.680;5.394;2023-09-19T02:26:06;100900.91;;;18.54;73.87
45523;BME280;31254;51.680;5.394;2023-09-19T02:28:34;100840.44;;;18.09;73.82
45523;BME280;31254;51.680;5.394;2023-09-19T02:31:02;100853.69;;;18.20;73.75
45523;BME280;31254;51.680;5.394;2023-09-19T02:33:31;100925.56;;;18.55;73.51
45523;BME280;31254;51.680;5.394;2023-09-19T02:35:59;100910.84;;;18.48;73.52
45523;BME280;31254;51.680;5.394;2023-09-19T02:38:41;100859.38;;;18.12;73.72
45523;BME280;31254;51.680;5.394;2023-09-19T02:41:08;100912.50;;;18.42;73.53
45523;BME280;31254;51.680;5.394;2023-09-19T02:43:35;100863.59;;;18.08;73.30
45523;BME280;31254;51.680;5.394;2023-09-19T02:46:03;100888.53;;;18.21;73.54
45523;BME280;31254;51.680;5.394;2023-09-19T02:48:29;100852.75;;;18.06;73.50
45523;BME280;31254;51.680;5.394;2023-09-19T02:50:59;100892.63;;;18.25;73.09
45523;BME280;31254;51.680;5.394;2023-09-19T02:53:26;100884.06;;;18.20;72.93
45523;BME280;31254;51.680;5.394;2023-09-19T02:55:53;100926.75;;;18.46;72.83
45523;BME280;31254;51.680;5.394;2023-09-19T02:58:19;100887.50;;;18.22;72.86
45523;BME280;31254;51.680;5.394;2023-09-19T03:00:49;100908.56;;;18.30;72.97
45523;BME280;31254;51.680;5.394;2023-09-19T03:03:18;100856.53;;;18.05;72.74
45523;BME280;31254;51.680;5.394;2023-09-19T03:05:45;100887.91;;;18.19;72.86
45523;BME280;31254;51.680;5.394;2023-09-19T03:08:15;100886.81;;;18.20;72.63
45523;BME280;31254;51.680;5.394;2023-09-19T03:10:46;100885.34;;;18.18;72.41
45523;BME280;31254;51.680;5.394;2023-09-19T03:13:14;100919.69;;;18.37;72.27
45523;BME280;31254;51.680;5.394;2023-09-19T03:15:42;100918.44;;;18.39;72.25
45523;BME280;31254;51.680;5.394;2023-09-19T03:18:14;100907.03;;;18.21;72.32
45523;BME280;31254;51.680;5.394;2023-09-19T03:20:40;100928.09;;;18.28;72.40
45523;BME280;31254;51.680;5.394;2023-09-19T03:23:07;100864.97;;;17.97;71.83
45523;BME280;31254;51.680;5.394;2023-09-19T03:25:34;100910.03;;;18.26;71.56
45523;BME280;31254;51.680;5.394;2023-09-19T03:28:03;100874.56;;;18.01;71.71
45523;BME280;31254;51.680;5.394;2023-09-19T03:30:32;100877.59;;;18.06;71.37
45523;BME280;31254;51.680;5.394;2023-09-19T03:33:00;100925.34;;;18.28;71.45
45523;BME280;31254;51.680;5.394;2023-09-19T03:35:27;100921.97;;;18.33;71.05
45523;BME280;31254;51.680;5.394;2023-09-19T03:37:54;100875.09;;;17.90;71.49
45523;BME280;31254;51.680;5.394;2023-09-19T03:40:21;100875.16;;;17.97;71.34
45523;BME280;31254;51.680;5.394;2023-09-19T03:42:49;100821.94;;;17.60;71.32
45523;BME280;31254;51.680;5.394;2023-09-19T03:45:16;100918.00;;;18.14;71.40
45523;BME280;31254;51.680;5.394;2023-09-19T03:47:45;100919.91;;;18.14;71.18
45523;BME280;31254;51.680;5.394;2023-09-19T03:50:14;100884.09;;;17.99;71.17
45523;BME280;31254;51.680;5.394;2023-09-19T03:52:44;100912.41;;;18.07;71.31
45523;BME280;31254;51.680;5.394;2023-09-19T03:55:11;100837.75;;;17.72;70.77
45523;BME280;31254;51.680;5.394;2023-09-19T03:57:41;100909.44;;;18.09;70.97
45523;BME280;31254;51.680;5.394;2023-09-19T04:00:08;100917.28;;;18.05;70.96
45523;BME280;31254;51.680;5.394;2023-09-19T04:02:39;100881.97;;;17.79;71.13
45523;BME280;31254;51.680;5.394;2023-09-19T04:05:06;100861.06;;;17.70;71.10
45523;BME280;31254;51.680;5.394;2023-09-19T04:07:33;100911.31;;;18.02;71.10
45523;BME280;31254;51.680;5.394;2023-09-19T04:10:01;100857.78;;;17.60;71.41
45523;BME280;31254;51.680;5.394;2023-09-19T04:12:29;100920.38;;;17.96;71.21
45523;BME280;31254;51.680;5.394;2023-09-19T04:14:55;100912.13;;;17.81;71.38
45523;BME280;31254;51.680;5.394;2023-09-19T04:17:22;100926.56;;;17.83;71.58
45523;BME280;31254;51.680;5.394;2023-09-19T04:19:50;100896.66;;;17.65;71.17
45523;BME280;31254;51.680;5.394;2023-09-19T04:22:17;100870.63;;;17.52;70.95
45523;BME280;31254;51.680;5.394;2023-09-19T04:24:44;100919.69;;;17.72;70.88
45523;BME280;31254;51.680;5.394;2023-09-19T04:27:11;100951.50;;;17.89;70.97
45523;BME280;31254;51.680;5.394;2023-09-19T04:29:41;100873.25;;;17.39;70.91
45523;BME280;31254;51.680;5.394;2023-09-19T04:32:11;100922.13;;;17.67;70.96
45523;BME280;31254;51.680;5.394;2023-09-19T04:34:39;100961.00;;;17.87;70.74
45523;BME280;31254;51.680;5.394;2023-09-19T04:37:06;100931.69;;;17.64;71.14
45523;BME280;31254;51.680;5.394;2023-09-19T04:39:33;100934.44;;;17.64;71.41
45523;BME280;31254;51.680;5.394;2023-09-19T04:42:00;100884.13;;;17.26;71.13
45523;BME280;31254;51.680;5.394;2023-09-19T04:44:27;100933.88;;;17.54;71.06
45523;BME280;31254;51.680;5.394;2023-09-19T04:46:54;100938.81;;;17.59;71.14
45523;BME280;31254;51.680;5.394;2023-09-19T04:49:21;100960.84;;;17.73;71.11
45523;BME280;31254;51.680;5.394;2023-09-19T04:51:48;100978.16;;;17.82;71.18
45523;BME280;31254;51.680;5.394;2023-09-19T04:54:18;100950.03;;;17.57;71.12
45523;BME280;31254;51.680;5.394;2023-09-19T04:56:45;100990.91;;;17.83;71.07
45523;BME280;31254;51.680;5.394;2023-09-19T04:59:12;100921.00;;;17.40;71.20
45523;BME280;31254;51.680;5.394;2023-09-19T05:01:41;100938.28;;;17.48;71.71
45523;BME280;31254;51.680;5.394;2023-09-19T05:04:14;100913.31;;;17.35;71.24
45523;BME280;31254;51.680;5.394;2023-09-19T05:06:42;100891.34;;;17.12;71.28
45523;BME280;31254;51.680;5.394;2023-09-19T05:09:21;100986.94;;;17.71;71.16
45523;BME280;31254;51.680;5.394;2023-09-19T05:11:49;100999.69;;;17.72;71.41
45523;BME280;31254;51.680;5.394;2023-09-19T05:14:18;100997.97;;;17.71;71.24
45523;BME280;31254;51.680;5.394;2023-09-19T05:16:46;100996.25;;;17.70;71.18
45523;BME280;31254;51.680;5.394;2023-09-19T05:19:14;100991.59;;;17.70;71.45
45523;BME280;31254;51.680;5.394;2023-09-19T05:21:40;100948.34;;;17.41;71.36
45523;BME280;31254;51.680;5.394;2023-09-19T05:24:08;100878.56;;;17.04;71.36
45523;BME280;31254;51.680;5.394;2023-09-19T05:26:37;100925.47;;;17.26;71.14
45523;BME280;31254;51.680;5.394;2023-09-19T05:29:03;100900.31;;;17.14;71.34
45523;BME280;31254;51.680;5.394;2023-09-19T05:31:31;100949.50;;;17.47;71.23
45523;BME280;31254;51.680;5.394;2023-09-19T05:33:58;100993.00;;;17.66;71.40
45523;BME280;31254;51.680;5.394;2023-09-19T05:36:27;100889.28;;;16.99;71.44
45523;BME280;31254;51.680;5.394;2023-09-19T05:38:56;100975.44;;;17.52;71.60
45523;BME280;31254;51.680;5.394;2023-09-19T05:41:23;100968.06;;;17.38;71.50
45523;BME280;31254;51.680;5.394;2023-09-19T05:43:50;101006.16;;;17.64;71.56
45523;BME280;31254;51.680;5.394;2023-09-19T05:46:17;100949.06;;;17.28;71.64
45523;BME280;31254;51.680;5.394;2023-09-19T05:48:48;100993.59;;;17.62;70.45
45523;BME280;31254;51.680;5.394;2023-09-19T05:51:16;100998.00;;;17.56;71.07
45523;BME280;31254;51.680;5.394;2023-09-19T05:53:44;100923.66;;;17.18;70.83
45523;BME280;31254;51.680;5.394;2023-09-19T05:56:11;100943.94;;;17.25;71.04
45523;BME280;31254;51.680;5.394;2023-09-19T05:58:37;100970.72;;;17.46;70.91
45523;BME280;31254;51.680;5.394;2023-09-19T06:01:05;100964.25;;;17.39;71.32
45523;BME280;31254;51.680;5.394;2023-09-19T06:03:33;100974.59;;;17.52;71.03
45523;BME280;31254;51.680;5.394;2023-09-19T06:06:02;100906.59;;;17.08;71.18
45523;BME280;31254;51.680;5.394;2023-09-19T06:08:28;100940.88;;;17.35;71.19
45523;BME280;31254;51.680;5.394;2023-09-19T06:10:56;100973.16;;;17.56;70.98
45523;BME280;31254;51.680;5.394;2023-09-19T06:13:23;100995.59;;;17.68;71.00
45523;BME280;31254;51.680;5.394;2023-09-19T06:15:54;101002.81;;;17.69;71.23
45523;BME280;31254;51.680;5.394;2023-09-19T06:18:22;100974.47;;;17.60;71.03
45523;BME280;31254;51.680;5.394;2023-09-19T06:20:52;100972.66;;;17.52;71.08
45523;BME280;31254;51.680;5.394;2023-09-19T06:23:20;101013.47;;;17.72;71.10
45523;BME280;31254;51.680;5.394;2023-09-19T06:25:47;100986.09;;;17.55;71.29
45523;BME280;31254;51.680;5.394;2023-09-19T06:28:14;100951.59;;;17.30;71.35
45523;BME280;31254;51.680;5.394;2023-09-19T06:30:44;101024.91;;;17.69;71.39
45523;BME280;31254;51.680;5.394;2023-09-19T06:33:11;101001.78;;;17.55;71.48
45523;BME280;31254;51.680;5.394;2023-09-19T06:35:43;101003.22;;;17.51;71.51
45523;BME280;31254;51.680;5.394;2023-09-19T06:38:13;101028.03;;;17.66;71.69
45523;BME280;31254;51.680;5.394;2023-09-19T06:40:42;101035.63;;;17.64;71.70
45523;BME280;31254;51.680;5.394;2023-09-19T06:43:10;101028.59;;;17.61;71.94
45523;BME280;31254;51.680;5.394;2023-09-19T06:45:37;101021.75;;;17.57;71.69
45523;BME280;31254;51.680;5.394;2023-09-19T06:48:04;100961.41;;;17.17;71.85
45523;BME280;31254;51.680;5.394;2023-09-19T06:50:32;100942.88;;;17.11;71.90
45523;BME280;31254;51.680;5.394;2023-09-19T06:53:01;101037.72;;;17.62;71.84
45523;BME280;31254;51.680;5.394;2023-09-19T06:55:28;100983.91;;;17.36;72.16
45523;BME280;31254;51.680;5.394;2023-09-19T06:57:58;100919.31;;;16.94;72.08
45523;BME280;31254;51.680;5.394;2023-09-19T07:00:25;101000.84;;;17.48;72.00
45523;BME280;31254;51.680;5.394;2023-09-19T07:03:04;101006.47;;;17.54;71.83
45523;BME280;31254;51.680;5.394;2023-09-19T07:05:35;101022.63;;;17.58;72.23
45523;BME280;31254;51.680;5.394;2023-09-19T07:08:07;101018.78;;;17.59;72.07
45523;BME280;31254;51.680;5.394;2023-09-19T07:10:34;101015.50;;;17.48;72.06
45523;BME280;31254;51.680;5.394;2023-09-19T07:13:03;101020.81;;;17.50;71.97
45523;BME280;31254;51.680;5.394;2023-09-19T07:15:32;101038.78;;;17.61;72.06
45523;BME280;31254;51.680;5.394;2023-09-19T07:18:06;101023.75;;;17.48;72.08
45523;BME280;31254;51.680;5.394;2023-09-19T07:20:33;101035.72;;;17.55;72.15
45523;BME280;31254;51.680;5.394;2023-09-19T07:23:04;101021.84;;;17.49;72.07
45523;BME280;31254;51.680;5.394;2023-09-19T07:25:30;101013.13;;;17.45;72.15
45523;BME280;31254;51.680;5.394;2023-09-19T07:27:58;101004.09;;;17.36;72.13
45523;BME280;31254;51.680;5.394;2023-09-19T07:30:27;100973.38;;;17.25;72.20
45523;BME280;31254;51.680;5.394;2023-09-19T07:32:57;101012.06;;;17.46;72.28
45523;BME280;31254;51.680;5.394;2023-09-19T07:35:24;101034.50;;;17.58;72.19
45523;BME280;31254;51.680;5.394;2023-09-19T07:37:52;100973.09;;;17.20;72.36
45523;BME280;31254;51.680;5.394;2023-09-19T07:40:19;100972.06;;;17.21;72.23
45523;BME280;31254;51.680;5.394;2023-09-19T07:42:47;100990.59;;;17.27;72.28
45523;BME280;31254;51.680;5.394;2023-09-19T07:45:14;100994.94;;;17.36;72.39
45523;BME280;31254;51.680;5.394;2023-09-19T07:47:48;101009.41;;;17.38;72.32
45523;BME280;31254;51.680;5.394;2023-09-19T07:50:17;101047.06;;;17.61;72.44
45523;BME280;31254;51.680;5.394;2023-09-19T07:52:49;100974.34;;;17.17;72.57
45523;BME280;31254;51.680;5.394;2023-09-19T07:55:20;101013.78;;;17.47;72.45
45523;BME280;31254;51.680;5.394;2023-09-19T07:57:50;101043.06;;;17.63;72.43
45523;BME280;31254;51.680;5.394;2023-09-19T08:00:16;101054.09;;;17.63;72.54
45523;BME280;31254;51.680;5.394;2023-09-19T08:02:43;101059.59;;;17.63;72.25
45523;BME280;31254;51.680;5.394;2023-09-19T08:05:12;101036.69;;;17.63;72.64
45523;BME280;31254;51.680;5.394;2023-09-19T08:07:43;101029.63;;;17.60;72.22
45523;BME280;31254;51.680;5.394;2023-09-19T08:10:10;101017.69;;;17.53;72.33
45523;BME280;31254;51.680;5.394;2023-09-19T08:12:40;101038.00;;;17.67;72.21
45523;BME280;31254;51.680;5.394;2023-09-19T08:15:14;101027.34;;;17.64;71.96
45523;BME280;31254;51.680;5.394;2023-09-19T08:17:42;101021.81;;;17.64;72.20
45523;BME280;31254;51.680;5.394;2023-09-19T08:20:10;101038.97;;;17.74;72.16
45523;BME280;31254;51.680;5.394;2023-09-19T08:22:51;101048.34;;;17.80;72.37
45523;BME280;31254;51.680;5.394;2023-09-19T08:25:29;101029.53;;;17.68;72.19
45523;BME280;31254;51.680;5.394;2023-09-19T08:27:58;101058.16;;;17.82;72.39
45523;BME280;31254;51.680;5.394;2023-09-19T08:30:27;101052.44;;;17.84;72.28
45523;BME280;31254;51.680;5.394;2023-09-19T08:32:58;101035.63;;;17.79;72.11
45523;BME280;31254;51.680;5.394;2023-09-19T08:35:28;100993.59;;;17.62;72.14
45523;BME280;31254;51.680;5.394;2023-09-19T08:37:55;101023.91;;;17.77;71.99
45523;BME280;31254;51.680;5.394;2023-09-19T08:40:23;101034.47;;;17.88;71.89
45523;BME280;31254;51.680;5.394;2023-09-19T08:42:51;101043.97;;;18.00;72.02
45523;BME280;31254;51.680;5.394;2023-09-19T08:45:20;101039.78;;;18.04;71.75
45523;BME280;31254;51.680;5.394;2023-09-19T08:48:00;101018.88;;;17.95;71.69
45523;BME280;31254;51.680;5.394;2023-09-19T08:50:29;101031.72;;;18.03;71.79
45523;BME280;31254;51.680;5.394;2023-09-19T08:53:01;101044.69;;;18.09;71.74
45523;BME280;31254;51.680;5.394;2023-09-19T08:55:35;101003.28;;;17.87;71.55
45523;BME280;31254;51.680;5.394;2023-09-19T08:58:05;101030.72;;;18.11;71.53
45523;BME280;31254;51.680;5.394;2023-09-19T09:00:34;101050.59;;;18.21;71.52
45523;BME280;31254;51.680;5.394;2023-09-19T09:03:02;100961.78;;;17.81;71.30
45523;BME280;31254;51.680;5.394;2023-09-19T09:05:31;101045.19;;;18.34;71.23
45523;BME280;31254;51.680;5.394;2023-09-19T09:07:59;100992.00;;;18.04;71.08
45523;BME280;31254;51.680;5.394;2023-09-19T09:10:27;101039.03;;;18.32;71.07
45523;BME280;31254;51.680;5.394;2023-09-19T09:12:54;101058.94;;;18.49;71.27
45523;BME280;31254;51.680;5.394;2023-09-19T09:15:24;101042.91;;;18.38;71.11
45523;BME280;31254;51.680;5.394;2023-09-19T09:17:51;101055.78;;;18.52;70.71
45523;BME280;31254;51.680;5.394;2023-09-19T09:20:21;101044.28;;;18.49;70.92
45523;BME280;31254;51.680;5.394;2023-09-19T09:22:55;100997.13;;;18.28;70.95
45523;BME280;31254;51.680;5.394;2023-09-19T09:25:22;101027.91;;;18.47;71.05
45523;BME280;31254;51.680;5.394;2023-09-19T09:27:59;100971.38;;;18.21;70.88
45523;BME280;31254;51.680;5.394;2023-09-19T09:30:37;101033.16;;;18.63;70.94
45523;BME280;31254;51.680;5.394;2023-09-19T09:33:10;101025.13;;;18.69;71.06
45523;BME280;31254;51.680;5.394;2023-09-19T09:35:58;101022.59;;;18.74;71.06
45523;BME280;31254;51.680;5.394;2023-09-19T09:38:28;101021.56;;;18.75;70.72
45523;BME280;31254;51.680;5.394;2023-09-19T09:41:00;101025.75;;;18.86;70.84
45523;BME280;31254;51.680;5.394;2023-09-19T09:43:36;100960.44;;;18.56;70.68
45523;BME280;31254;51.680;5.394;2023-09-19T09:46:11;101030.72;;;18.97;70.27
45523;BME280;31254;51.680;5.394;2023-09-19T09:49:03;101031.59;;;19.04;70.54
45523;BME280;31254;51.680;5.394;2023-09-19T09:51:58;101013.50;;;19.02;69.80
45523;BME280;31254;51.680;5.394;2023-09-19T09:54:29;100997.75;;;18.95;69.58
45523;BME280;31254;51.680;5.394;2023-09-19T09:57:09;101021.09;;;19.21;69.44
45523;BME280;31254;51.680;5.394;2023-09-19T10:00:03;101030.28;;;19.28;69.43
45523;BME280;31254;51.680;5.394;2023-09-19T10:02:38;101029.44;;;19.28;68.94
45523;BME280;31254;51.680;5.394;2023-09-19T10:05:19;101017.09;;;19.30;69.10
45523;BME280;31254;51.680;5.394;2023-09-19T10:07:49;101032.06;;;19.43;68.95
45523;BME280;31254;51.680;5.394;2023-09-19T10:10:35;101024.66;;;19.50;69.00
45523;BME280;31254;51.680;5.394;2023-09-19T10:13:11;101007.00;;;19.51;69.10
45523;BME280;31254;51.680;5.394;2023-09-19T10:15:42;100964.75;;;19.29;68.67
45523;BME280;31254;51.680;5.394;2023-09-19T10:18:14;101017.28;;;19.64;68.45
45523;BME280;31254;51.680;5.394;2023-09-19T10:20:45;101020.69;;;19.66;68.65
45523;BME280;31254;51.680;5.394;2023-09-19T10:23:16;100979.75;;;19.48;68.28
45523;BME280;31254;51.680;5.394;2023-09-19T10:29:32;100948.47;;;19.47;67.84
45523;BME280;31254;51.680;5.394;2023-09-19T10:32:00;101025.91;;;19.89;67.86
45523;BME280;31254;51.680;5.394;2023-09-19T10:34:34;101011.25;;;19.95;67.57
45523;BME280;31254;51.680;5.394;2023-09-19T10:37:02;100991.44;;;19.91;67.28
45523;BME280;31254;51.680;5.394;2023-09-19T10:39:32;101014.91;;;20.02;66.95
45523;BME280;31254;51.680;5.394;2023-09-19T10:42:02;101016.63;;;20.10;66.73
45523;BME280;31254;51.680;5.394;2023-09-19T10:44:33;100992.16;;;20.07;66.78
45523;BME280;31254;51.680;5.394;2023-09-19T10:46:59;100967.78;;;19.89;66.45
45523;BME280;31254;51.680;5.394;2023-09-19T10:49:26;100988.53;;;20.20;66.11
45523;BME280;31254;51.680;5.394;2023-09-19T10:51:55;100969.13;;;20.20;66.25
45523;BME280;31254;51.680;5.394;2023-09-19T10:54:28;100987.69;;;20.33;65.80
45523;BME280;31254;51.680;5.394;2023-09-19T10:56:59;100935.06;;;20.13;65.58
45523;BME280;31254;51.680;5.394;2023-09-19T10:59:27;100935.91;;;20.20;65.73
45523;BME280;31254;51.680;5.394;2023-09-19T11:02:18;100961.06;;;20.45;65.22
45523;BME280;31254;51.680;5.394;2023-09-19T11:04:45;100957.03;;;20.48;65.29
45523;BME280;31254;51.680;5.394;2023-09-19T11:07:15;100956.41;;;20.72;64.99
45523;BME280;31254;51.680;5.394;2023-09-19T11:09:52;100976.66;;;20.79;64.35
45523;BME280;31254;51.680;5.394;2023-09-19T11:15:08;100957.91;;;20.88;64.55
45523;BME280;31254;51.680;5.394;2023-09-19T11:17:41;100954.88;;;20.96;64.18
45523;BME280;31254;51.680;5.394;2023-09-19T11:33:16;100943.66;;;21.43;63.07
45523;BME280;31254;51.680;5.394;2023-09-19T11:36:05;100946.41;;;21.57;62.61
45523;BME280;31254;51.680;5.394;2023-09-19T11:46:24;100890.50;;;21.85;61.20
45523;BME280;31254;51.680;5.394;2023-09-19T11:48:51;100895.53;;;22.01;61.15
45523;BME280;31254;51.680;5.394;2023-09-19T11:51:25;100924.88;;;22.22;60.64
45523;BME280;31254;51.680;5.394;2023-09-19T11:53:56;100908.56;;;22.33;59.72
45523;BME280;31254;51.680;5.394;2023-09-19T11:56:26;100863.09;;;22.20;59.37
45523;BME280;31254;51.680;5.394;2023-09-19T11:58:58;100894.19;;;22.61;58.96
45523;BME280;31254;51.680;5.394;2023-09-19T12:01:31;100923.78;;;22.74;58.48
45523;BME280;31254;51.680;5.394;2023-09-19T12:04:02;100924.06;;;22.91;58.25
45523;BME280;31254;51.680;5.394;2023-09-19T12:06:31;100915.38;;;22.80;58.44
45523;BME280;31254;51.680;5.394;2023-09-19T12:09:03;100907.88;;;22.62;58.42
45523;BME280;31254;51.680;5.394;2023-09-19T12:11:41;100867.28;;;22.36;58.64
45523;BME280;31254;51.680;5.394;2023-09-19T12:14:09;100890.41;;;22.55;58.34
45523;BME280;31254;51.680;5.394;2023-09-19T12:16:36;100930.91;;;22.70;58.45
45523;BME280;31254;51.680;5.394;2023-09-19T12:19:32;100930.16;;;22.56;58.90
45523;BME280;31254;51.680;5.394;2023-09-19T12:22:03;100934.06;;;22.48;58.96
45523;BME280;31254;51.680;5.394;2023-09-19T12:24:35;100942.97;;;22.32;59.59
45523;BME280;31254;51.680;5.394;2023-09-19T12:27:06;100907.00;;;22.12;59.35
45523;BME280;31254;51.680;5.394;2023-09-19T12:29:46;100928.72;;;22.21;59.81
45523;BME280;31254;51.680;5.394;2023-09-19T12:32:13;100890.22;;;21.93;59.99
45523;BME280;31254;51.680;5.394;2023-09-19T12:34:41;100918.38;;;22.03;60.01
45523;BME280;31254;51.680;5.394;2023-09-19T12:37:14;100904.13;;;21.93;60.15
45523;BME280;31254;51.680;5.394;2023-09-19T12:39:50;100895.31;;;21.71;60.27
45523;BME280;31254;51.680;5.394;2023-09-19T12:42:26;100874.44;;;21.62;59.64
45523;BME280;31254;51.680;5.394;2023-09-19T12:44:59;100938.03;;;22.02;59.67
45523;BME280;31254;51.680;5.394;2023-09-19T12:47:28;100895.66;;;21.81;59.88
45523;BME280;31254;51.680;5.394;2023-09-19T12:52:47;100922.81;;;21.79;59.99
45523;BME280;31254;51.680;5.394;2023-09-19T12:55:24;100912.94;;;21.83;60.41
45523;BME280;31254;51.680;5.394;2023-09-19T13:00:37;100916.59;;;21.84;60.64
45523;BME280;31254;51.680;5.394;2023-09-19T13:05:56;100925.31;;;21.87;60.62
45523;BME280;31254;51.680;5.394;2023-09-19T13:08:26;100896.38;;;21.70;60.27
45523;BME280;31254;51.680;5.394;2023-09-19T13:11:12;100936.19;;;21.89;60.52
45523;BME280;31254;51.680;5.394;2023-09-19T13:13:41;100905.09;;;21.73;60.40
45523;BME280;31254;51.680;5.394;2023-09-19T13:16:11;100926.59;;;21.85;60.77
45523;BME280;31254;51.680;5.394;2023-09-19T13:18:45;100920.03;;;21.79;60.84
45523;BME280;31254;51.680;5.394;2023-09-19T13:21:13;100904.69;;;21.70;60.54
45523;BME280;31254;51.680;5.394;2023-09-19T13:23:55;100937.31;;;21.81;60.88
45523;BME280;31254;51.680;5.394;2023-09-19T13:26:25;100932.19;;;21.78;60.62
45523;BME280;31254;51.680;5.394;2023-09-19T13:28:52;100927.31;;;21.73;60.42
45523;BME280;31254;51.680;5.394;2023-09-19T13:31:19;100906.50;;;21.58;60.59
45523;BME280;31254;51.680;5.394;2023-09-19T13:33:47;100927.72;;;21.77;60.76
45523;BME280;31254;51.680;5.394;2023-09-19T13:36:14;100936.28;;;21.76;60.68
45523;BME280;31254;51.680;5.394;2023-09-19T13:38:41;100929.47;;;21.71;60.58
45523;BME280;31254;51.680;5.394;2023-09-19T13:41:13;100882.84;;;21.48;60.24
45523;BME280;31254;51.680;5.394;2023-09-19T13:43:40;100924.53;;;21.73;60.47
45523;BME280;31254;51.680;5.394;2023-09-19T13:46:07;100932.22;;;21.71;61.21
45523;BME280;31254;51.680;5.394;2023-09-19T13:48:34;100923.88;;;21.78;61.04
45523;BME280;31254;51.680;5.394;2023-09-19T13:51:02;100879.84;;;21.50;60.70
45523;BME280;31254;51.680;5.394;2023-09-19T13:53:30;100927.94;;;21.76;60.97
45523;BME280;31254;51.680;5.394;2023-09-19T13:55:56;100918.97;;;21.80;61.29
45523;BME280;31254;51.680;5.394;2023-09-19T13:58:23;100878.75;;;21.51;61.55
45523;BME280;31254;51.680;5.394;2023-09-19T14:00:50;100918.13;;;21.73;61.56
45523;BME280;31254;51.680;5.394;2023-09-19T14:03:17;100896.44;;;21.57;61.33